createdAt,value
2023-03-05T07:37:41.521Z,98580.77
2023-03-05T07:43:45.668Z,98575.73
2023-03-05T07:49:48.784Z,98573.10
2023-03-05T07:55:53.331Z,98577.19
2023-03-05T08:01:56.541Z,98573.12
2023-03-05T08:07:59.590Z,98559.48
2023-03-05T08:14:02.733Z,98555.78
2023-03-05T08:20:10.505Z,98549.55
2023-03-05T08:26:15.182Z,98541.27
2023-03-05T08:32:18.288Z,98537.27
2023-03-05T08:38:21.257Z,98536.05
2023-03-05T08:44:24.215Z,98537.08
2023-03-05T08:50:27.280Z,98525.77
2023-03-05T08:56:31.437Z,98519.47
2023-03-05T09:02:35.405Z,98521.20
2023-03-05T09:08:39.018Z,98516.73
2023-03-05T09:14:42.919Z,98508.57
2023-03-05T09:20:46.052Z,98501.32
2023-03-05T09:26:49.065Z,98500.23
2023-03-05T09:32:52.355Z,98493.88
2023-03-05T09:38:55.692Z,98488.55
2023-03-05T09:45:20.027Z,98483.59
2023-03-05T09:51:26.361Z,98477.80
2023-03-05T09:57:39.454Z,98468.73
2023-03-05T10:04:07.159Z,98467.77
2023-03-05T10:10:14.363Z,98462.78
2023-03-05T10:16:56.251Z,98453.17
2023-03-05T10:22:59.379Z,98443.78
2023-03-05T10:29:17.606Z,98448.02
2023-03-05T10:35:32.695Z,98438.02
2023-03-05T10:42:02.570Z,98429.10
2023-03-05T10:48:13.595Z,98420.80
2023-03-05T10:54:25.390Z,98418.50
2023-03-05T11:00:30.060Z,98415.22
2023-03-05T11:06:37.546Z,98414.10
2023-03-05T11:12:40.650Z,98407.82
2023-03-05T11:18:49.639Z,98401.52
2023-03-05T11:25:22.681Z,98403.83
2023-03-05T11:31:30.733Z,98396.79
2023-03-05T11:37:42.306Z,98394.95
2023-03-05T11:43:45.605Z,98395.33
2023-03-05T11:49:51.393Z,98400.04
2023-03-05T11:56:13.288Z,98398.50
2023-03-05T12:02:22.847Z,98395.83
2023-03-05T12:08:33.408Z,98384.46
2023-03-05T12:14:46.300Z,98385.02
2023-03-05T12:21:08.409Z,98376.15
2023-03-05T12:27:15.785Z,98366.80
2023-03-05T12:33:38.394Z,98367.00
2023-03-05T12:39:51.007Z,98364.80
2023-03-05T12:46:23.215Z,98348.80
2023-03-05T12:52:31.942Z,98339.60
2023-03-05T12:58:42.185Z,98333.79
2023-03-05T13:04:47.750Z,98336.48
2023-03-05T13:11:18.907Z,98334.70
2023-03-05T13:17:29.313Z,98332.32
2023-03-05T13:23:34.127Z,98330.98
2023-03-05T13:29:52.585Z,98336.02
2023-03-05T13:35:56.126Z,98330.39
2023-03-05T13:42:14.659Z,98327.81
2023-03-05T13:48:20.722Z,98324.57
2023-03-05T13:54:25.226Z,98309.50
2023-03-05T14:00:35.674Z,98309.96
2023-03-05T14:07:03.080Z,98309.09
2023-03-05T14:13:13.164Z,98296.65
2023-03-05T14:19:36.884Z,98284.91
2023-03-05T14:25:40.569Z,98284.38
2023-03-05T14:31:51.441Z,98282.30
2023-03-05T14:37:57.121Z,98287.09
2023-03-05T14:44:09.782Z,98288.73
2023-03-05T14:50:20.149Z,98269.21
2023-03-05T14:56:28.135Z,98286.50
2023-03-05T15:02:31.215Z,98290.27
2023-03-05T15:08:40.933Z,98290.89
2023-03-05T15:14:46.523Z,98278.86
2023-03-05T15:20:53.036Z,98279.39
2023-03-05T15:26:55.883Z,98271.28
2023-03-05T15:33:03.578Z,98270.74
2023-03-05T15:39:07.956Z,98270.38
2023-03-05T15:45:11.290Z,98265.69
2023-03-05T15:51:14.220Z,98259.92
2023-03-05T15:57:17.514Z,98257.88
2023-03-05T16:03:20.944Z,98256.95
2023-03-05T16:09:27.034Z,98254.25
2023-03-05T16:15:33.893Z,98260.69
2023-03-05T16:21:39.719Z,98256.27
2023-03-05T16:27:43.402Z,98258.80
2023-03-05T16:33:48.146Z,98252.55
2023-03-05T16:39:51.675Z,98268.75
2023-03-05T16:45:56.910Z,98274.56
2023-03-05T16:52:06.185Z,98270.60
2023-03-05T16:58:19.718Z,98273.09
2023-03-05T17:04:25.356Z,98273.35
2023-03-05T17:10:28.882Z,98270.33
2023-03-05T17:16:32.340Z,98276.20
2023-03-05T17:22:35.666Z,98275.64
2023-03-05T17:28:40.692Z,98276.70
2023-03-05T17:34:47.012Z,98282.64
2023-03-05T17:40:59.093Z,98298.77
2023-03-05T17:47:02.511Z,98302.98
2023-03-05T17:53:07.984Z,98301.98
2023-03-05T17:59:11.656Z,98307.77
2023-03-05T18:05:15.622Z,98313.00
2023-03-05T18:11:18.933Z,98311.73
2023-03-05T18:17:24.840Z,98309.23
2023-03-05T18:23:33.168Z,98317.87
2023-03-05T18:29:37.406Z,98314.00
2023-03-05T18:35:40.919Z,98313.30
2023-03-05T18:41:44.594Z,98316.67
2023-03-05T18:47:49.237Z,98318.23
2023-03-05T18:53:56.135Z,98310.02
2023-03-05T19:00:04.078Z,98316.19
2023-03-05T19:06:11.544Z,98306.21
2023-03-05T19:12:15.963Z,98296.14
2023-03-05T19:18:28.758Z,98292.74
2023-03-05T19:24:38.534Z,98297.56
2023-03-05T19:30:53.515Z,98296.92
2023-03-05T19:37:16.528Z,98298.77
2023-03-05T19:43:38.208Z,98296.68
2023-03-05T19:49:49.411Z,98301.13
2023-03-05T19:55:58.237Z,98300.40
2023-03-05T20:02:01.713Z,98299.85
2023-03-05T20:08:07.073Z,98296.51
2023-03-05T20:14:14.067Z,98294.47
2023-03-05T20:20:21.286Z,98290.73
2023-03-05T20:26:32.489Z,98280.35
2023-03-05T20:32:45.506Z,98274.23
2023-03-05T20:38:53.861Z,98274.17
2023-03-05T20:44:57.312Z,98282.36
2023-03-05T20:51:22.853Z,98278.92
2023-03-05T20:57:25.927Z,98278.91
2023-03-05T21:03:29.990Z,98276.95
2023-03-05T21:09:33.012Z,98271.77
2023-03-05T21:15:36.052Z,98266.54
2023-03-05T21:21:44.734Z,98271.23
2023-03-05T21:28:01.710Z,98265.46
2023-03-05T21:34:04.712Z,98255.42
2023-03-05T21:40:10.431Z,98253.33
2023-03-05T21:46:15.533Z,98252.02
2023-03-05T21:52:19.343Z,98235.89
2023-03-05T21:58:24.338Z,98239.59
2023-03-05T22:04:28.954Z,98233.63
2023-03-05T22:10:32.775Z,98231.73
2023-03-05T22:16:36.548Z,98228.92
2023-03-05T22:22:39.991Z,98225.40
2023-03-05T22:28:42.865Z,98218.83
2023-03-05T22:34:45.817Z,98218.50
2023-03-05T22:40:49.564Z,98213.77
2023-03-05T22:46:52.635Z,98216.19
2023-03-05T22:52:55.747Z,98206.82
2023-03-05T22:58:58.799Z,98207.16
2023-03-05T23:05:03.476Z,98203.32
2023-03-05T23:11:11.019Z,98197.33
2023-03-05T23:17:15.278Z,98192.58
2023-03-05T23:23:18.105Z,98191.56
2023-03-05T23:29:21.066Z,98187.59
2023-03-05T23:35:34.876Z,98183.25
2023-03-05T23:41:37.741Z,98187.15
2023-03-05T23:47:43.452Z,98193.89
2023-03-05T23:53:46.544Z,98192.98
2023-03-05T23:59:51.570Z,98187.36
